sensor_id;sensor_type;location;lat;lon;timestamp;P1;P2;P0
73623;PMS5003;61921;53.226;-1.296;2023-05-10T00:00:44;13;11;
73623;PMS5003;61921;53.226;-1.296;2023-05-10T00:03:09;12;8;
73623;PMS5003;61921;53.226;-1.296;2023-05-10T00:05:34;8;8;
73623;PMS5003;61921;53.226;-1.296;2023-05-10T00:08:00;9;9;
73623;PMS5003;61921;53.226;-1.296;2023-05-10T00:10:25;12;12;
73623;PMS5003;61921;53.226;-1.296;2023-05-10T00:12:51;10;8;
73623;PMS5003;61921;53.226;-1.296;2023-05-10T00:15:16;10;10;
73623;PMS5003;61921;53.226;-1.296;2023-05-10T00:17:42;11;9;
73623;PMS5003;61921;53.226;-1.296;2023-05-10T00:20:08;10;8;
73623;PMS5003;61921;53.226;-1.296;2023-05-10T00:22:33;11;7;
73623;PMS5003;61921;53.226;-1.296;2023-05-10T00:24:59;10;10;
73623;PMS5003;61921;53.226;-1.296;2023-05-10T00:27:24;11;9;
73623;PMS5003;61921;53.226;-1.296;2023-05-10T00:29:49;14;10;
73623;PMS5003;61921;53.226;-1.296;2023-05-10T00:32:15;17;11;
73623;PMS5003;61921;53.226;-1.296;2023-05-10T00:34:40;10;10;
73623;PMS5003;61921;53.226;-1.296;2023-05-10T00:41:57;11;8;
73623;PMS5003;61921;53.226;-1.296;2023-05-10T00:44:22;17;13;
73623;PMS5003;61921;53.226;-1.296;2023-05-10T00:46:47;12;10;
73623;PMS5003;61921;53.226;-1.296;2023-05-10T00:49:12;11;9;
73623;PMS5003;61921;53.226;-1.296;2023-05-10T00:51:38;13;12;
73623;PMS5003;61921;53.226;-1.296;2023-05-10T00:54:03;7;7;
73623;PMS5003;61921;53.226;-1.296;2023-05-10T00:56:29;12;11;
73623;PMS5003;61921;53.226;-1.296;2023-05-10T00:58:54;16;15;
73623;PMS5003;61921;53.226;-1.296;2023-05-10T01:01:20;12;12;
73623;PMS5003;61921;53.226;-1.296;2023-05-10T01:03:45;19;15;
73623;PMS5003;61921;53.226;-1.296;2023-05-10T01:06:10;10;9;
73623;PMS5003;61921;53.226;-1.296;2023-05-10T01:08:36;12;11;
73623;PMS5003;61921;53.226;-1.296;2023-05-10T01:11:01;11;9;
73623;PMS5003;61921;53.226;-1.296;2023-05-10T01:13:29;7;7;
73623;PMS5003;61921;53.226;-1.296;2023-05-10T01:15:51;11;8;
73623;PMS5003;61921;53.226;-1.296;2023-05-10T01:18:17;8;8;
73623;PMS5003;61921;53.226;-1.296;2023-05-10T01:20:43;9;9;
73623;PMS5003;61921;53.226;-1.296;2023-05-10T01:23:11;8;7;
73623;PMS5003;61921;53.226;-1.296;2023-05-10T01:30:33;10;10;
73623;PMS5003;61921;53.226;-1.296;2023-05-10T01:32:51;11;10;
73623;PMS5003;61921;53.226;-1.296;2023-05-10T01:35:16;12;10;
73623;PMS5003;61921;53.226;-1.296;2023-05-10T01:37:41;13;9;
73623;PMS5003;61921;53.226;-1.296;2023-05-10T01:40:08;11;6;
73623;PMS5003;61921;53.226;-1.296;2023-05-10T01:42:32;10;7;
73623;PMS5003;61921;53.226;-1.296;2023-05-10T01:44:56;10;7;
73623;PMS5003;61921;53.226;-1.296;2023-05-10T01:47:24;10;8;
73623;PMS5003;61921;53.226;-1.296;2023-05-10T01:49:48;12;6;
73623;PMS5003;61921;53.226;-1.296;2023-05-10T01:52:14;11;9;
73623;PMS5003;61921;53.226;-1.296;2023-05-10T01:54:38;10;9;
73623;PMS5003;61921;53.226;-1.296;2023-05-10T01:57:05;8;7;
73623;PMS5003;61921;53.226;-1.296;2023-05-10T01:59:29;11;9;
73623;PMS5003;61921;53.226;-1.296;2023-05-10T02:01:54;12;9;
73623;PMS5003;61921;53.226;-1.296;2023-05-10T02:04:20;12;10;
73623;PMS5003;61921;53.226;-1.296;2023-05-10T02:06:45;13;10;
73623;PMS5003;61921;53.226;-1.296;2023-05-10T02:09:11;15;14;
73623;PMS5003;61921;53.226;-1.296;2023-05-10T02:11:37;9;6;
73623;PMS5003;61921;53.226;-1.296;2023-05-10T02:14:02;10;9;
73623;PMS5003;61921;53.226;-1.296;2023-05-10T02:16:27;8;8;
73623;PMS5003;61921;53.226;-1.296;2023-05-10T02:18:53;12;11;
73623;PMS5003;61921;53.226;-1.296;2023-05-10T02:21:19;11;7;
73623;PMS5003;61921;53.226;-1.296;2023-05-10T02:23:43;9;8;
73623;PMS5003;61921;53.226;-1.296;2023-05-10T02:26:09;10;7;
73623;PMS5003;61921;53.226;-1.296;2023-05-10T02:28:34;9;9;
73623;PMS5003;61921;53.226;-1.296;2023-05-10T02:31:00;8;8;
73623;PMS5003;61921;53.226;-1.296;2023-05-10T02:33:25;6;6;
73623;PMS5003;61921;53.226;-1.296;2023-05-10T02:35:51;8;7;
73623;PMS5003;61921;53.226;-1.296;2023-05-10T02:38:16;9;7;
73623;PMS5003;61921;53.226;-1.296;2023-05-10T02:40:41;11;7;
73623;PMS5003;61921;53.226;-1.296;2023-05-10T02:43:07;9;9;
73623;PMS5003;61921;53.226;-1.296;2023-05-10T02:45:32;6;6;
73623;PMS5003;61921;53.226;-1.296;2023-05-10T02:47:58;10;7;
73623;PMS5003;61921;53.226;-1.296;2023-05-10T02:50:23;11;10;
73623;PMS5003;61921;53.226;-1.296;2023-05-10T02:52:50;11;7;
73623;PMS5003;61921;53.226;-1.296;2023-05-10T02:55:14;6;6;
73623;PMS5003;61921;53.226;-1.296;2023-05-10T02:57:40;7;7;
73623;PMS5003;61921;53.226;-1.296;2023-05-10T03:00:05;8;7;
73623;PMS5003;61921;53.226;-1.296;2023-05-10T03:02:30;13;9;
73623;PMS5003;61921;53.226;-1.296;2023-05-10T03:04:55;11;9;
73623;PMS5003;61921;53.226;-1.296;2023-05-10T03:07:21;9;8;
73623;PMS5003;61921;53.226;-1.296;2023-05-10T03:09:46;9;7;
73623;PMS5003;61921;53.226;-1.296;2023-05-10T03:12:13;16;11;
73623;PMS5003;61921;53.226;-1.296;2023-05-10T03:14:42;15;12;
73623;PMS5003;61921;53.226;-1.296;2023-05-10T03:17:04;16;10;
73623;PMS5003;61921;53.226;-1.296;2023-05-10T03:19:30;13;11;
73623;PMS5003;61921;53.226;-1.296;2023-05-10T03:21:54;14;9;
73623;PMS5003;61921;53.226;-1.296;2023-05-10T03:24:20;9;9;
73623;PMS5003;61921;53.226;-1.296;2023-05-10T03:26:45;10;6;
73623;PMS5003;61921;53.226;-1.296;2023-05-10T03:29:10;13;7;
73623;PMS5003;61921;53.226;-1.296;2023-05-10T03:31:36;7;7;
73623;PMS5003;61921;53.226;-1.296;2023-05-10T03:34:01;10;9;
73623;PMS5003;61921;53.226;-1.296;2023-05-10T03:36:27;7;6;
73623;PMS5003;61921;53.226;-1.296;2023-05-10T03:38:52;6;6;
73623;PMS5003;61921;53.226;-1.296;2023-05-10T03:41:17;12;9;
73623;PMS5003;61921;53.226;-1.296;2023-05-10T03:43:43;12;11;
73623;PMS5003;61921;53.226;-1.296;2023-05-10T03:46:08;9;7;
73623;PMS5003;61921;53.226;-1.296;2023-05-10T03:48:34;7;7;
73623;PMS5003;61921;53.226;-1.296;2023-05-10T03:50:59;11;7;
73623;PMS5003;61921;53.226;-1.296;2023-05-10T03:53:24;9;9;
73623;PMS5003;61921;53.226;-1.296;2023-05-10T03:55:50;11;9;
73623;PMS5003;61921;53.226;-1.296;2023-05-10T03:58:15;18;15;
73623;PMS5003;61921;53.226;-1.296;2023-05-10T04:00:41;12;8;
73623;PMS5003;61921;53.226;-1.296;2023-05-10T04:03:06;8;7;
73623;PMS5003;61921;53.226;-1.296;2023-05-10T04:05:31;11;9;
73623;PMS5003;61921;53.226;-1.296;2023-05-10T04:07:56;11;7;
73623;PMS5003;61921;53.226;-1.296;2023-05-10T04:10:22;9;9;
73623;PMS5003;61921;53.226;-1.296;2023-05-10T04:12:47;11;8;
73623;PMS5003;61921;53.226;-1.296;2023-05-10T04:15:13;12;10;
73623;PMS5003;61921;53.226;-1.296;2023-05-10T04:17:39;13;9;
73623;PMS5003;61921;53.226;-1.296;2023-05-10T04:20:05;13;9;
73623;PMS5003;61921;53.226;-1.296;2023-05-10T04:22:29;12;10;
73623;PMS5003;61921;53.226;-1.296;2023-05-10T04:24:54;14;12;
73623;PMS5003;61921;53.226;-1.296;2023-05-10T04:27:20;14;11;
73623;PMS5003;61921;53.226;-1.296;2023-05-10T04:29:45;13;12;
73623;PMS5003;61921;53.226;-1.296;2023-05-10T04:32:10;12;12;
73623;PMS5003;61921;53.226;-1.296;2023-05-10T04:34:36;14;10;
73623;PMS5003;61921;53.226;-1.296;2023-05-10T04:37:01;15;13;
73623;PMS5003;61921;53.226;-1.296;2023-05-10T04:39:27;12;12;
73623;PMS5003;61921;53.226;-1.296;2023-05-10T04:41:52;14;10;
73623;PMS5003;61921;53.226;-1.296;2023-05-10T04:44:17;16;12;
73623;PMS5003;61921;53.226;-1.296;2023-05-10T04:46:42;16;12;
73623;PMS5003;61921;53.226;-1.296;2023-05-10T04:49:08;21;20;
73623;PMS5003;61921;53.226;-1.296;2023-05-10T04:51:33;15;13;
73623;PMS5003;61921;53.226;-1.296;2023-05-10T04:53:59;16;15;
73623;PMS5003;61921;53.226;-1.296;2023-05-10T04:56:24;14;10;
73623;PMS5003;61921;53.226;-1.296;2023-05-10T04:58:49;17;15;
73623;PMS5003;61921;53.226;-1.296;2023-05-10T05:01:14;16;14;
73623;PMS5003;61921;53.226;-1.296;2023-05-10T05:03:40;17;13;
73623;PMS5003;61921;53.226;-1.296;2023-05-10T05:06:06;17;15;
73623;PMS5003;61921;53.226;-1.296;2023-05-10T05:08:31;17;17;
73623;PMS5003;61921;53.226;-1.296;2023-05-10T05:10:57;24;17;
73623;PMS5003;61921;53.226;-1.296;2023-05-10T05:13:22;30;23;
73623;PMS5003;61921;53.226;-1.296;2023-05-10T05:15:47;19;19;
73623;PMS5003;61921;53.226;-1.296;2023-05-10T05:18:13;24;21;
73623;PMS5003;61921;53.226;-1.296;2023-05-10T05:20:38;20;16;
73623;PMS5003;61921;53.226;-1.296;2023-05-10T05:23:03;25;18;
73623;PMS5003;61921;53.226;-1.296;2023-05-10T05:25:28;24;20;
73623;PMS5003;61921;53.226;-1.296;2023-05-10T05:27:53;28;22;
73623;PMS5003;61921;53.226;-1.296;2023-05-10T05:30:19;21;15;
73623;PMS5003;61921;53.226;-1.296;2023-05-10T05:32:44;21;19;
73623;PMS5003;61921;53.226;-1.296;2023-05-10T05:35:10;17;15;
73623;PMS5003;61921;53.226;-1.296;2023-05-10T05:37:35;27;21;
73623;PMS5003;61921;53.226;-1.296;2023-05-10T05:40:00;21;19;
73623;PMS5003;61921;53.226;-1.296;2023-05-10T05:42:25;22;20;
73623;PMS5003;61921;53.226;-1.296;2023-05-10T05:44:51;23;19;
73623;PMS5003;61921;53.226;-1.296;2023-05-10T05:47:16;23;18;
73623;PMS5003;61921;53.226;-1.296;2023-05-10T05:49:42;19;17;
73623;PMS5003;61921;53.226;-1.296;2023-05-10T05:52:07;20;19;
73623;PMS5003;61921;53.226;-1.296;2023-05-10T05:54:33;25;22;
73623;PMS5003;61921;53.226;-1.296;2023-05-10T05:56:58;25;23;
73623;PMS5003;61921;53.226;-1.296;2023-05-10T05:59:24;32;29;
73623;PMS5003;61921;53.226;-1.296;2023-05-10T06:01:49;25;22;
73623;PMS5003;61921;53.226;-1.296;2023-05-10T06:04:15;23;18;
73623;PMS5003;61921;53.226;-1.296;2023-05-10T06:06:40;25;22;
73623;PMS5003;61921;53.226;-1.296;2023-05-10T06:09:06;30;24;
73623;PMS5003;61921;53.226;-1.296;2023-05-10T06:11:31;24;21;
73623;PMS5003;61921;53.226;-1.296;2023-05-10T06:13:57;26;24;
73623;PMS5003;61921;53.226;-1.296;2023-05-10T06:16:22;27;24;
73623;PMS5003;61921;53.226;-1.296;2023-05-10T06:18:48;23;21;
73623;PMS5003;61921;53.226;-1.296;2023-05-10T06:21:13;19;19;
73623;PMS5003;61921;53.226;-1.296;2023-05-10T06:23:39;32;28;
73623;PMS5003;61921;53.226;-1.296;2023-05-10T06:26:04;23;20;
73623;PMS5003;61921;53.226;-1.296;2023-05-10T06:28:30;25;23;
73623;PMS5003;61921;53.226;-1.296;2023-05-10T06:30:55;28;20;
73623;PMS5003;61921;53.226;-1.296;2023-05-10T06:33:20;17;17;
73623;PMS5003;61921;53.226;-1.296;2023-05-10T06:35:46;27;22;
73623;PMS5003;61921;53.226;-1.296;2023-05-10T06:38:11;26;23;
73623;PMS5003;61921;53.226;-1.296;2023-05-10T06:40:41;21;20;
73623;PMS5003;61921;53.226;-1.296;2023-05-10T06:43:03;18;17;
73623;PMS5003;61921;53.226;-1.296;2023-05-10T06:45:28;20;18;
73623;PMS5003;61921;53.226;-1.296;2023-05-10T06:47:53;22;19;
73623;PMS5003;61921;53.226;-1.296;2023-05-10T06:50:19;26;21;
73623;PMS5003;61921;53.226;-1.296;2023-05-10T06:52:44;21;18;
73623;PMS5003;61921;53.226;-1.296;2023-05-10T06:55:09;19;18;
73623;PMS5003;61921;53.226;-1.296;2023-05-10T06:57:35;21;15;
73623;PMS5003;61921;53.226;-1.296;2023-05-10T07:00:00;18;17;
73623;PMS5003;61921;53.226;-1.296;2023-05-10T07:02:26;17;13;
73623;PMS5003;61921;53.226;-1.296;2023-05-10T07:04:51;18;15;
73623;PMS5003;61921;53.226;-1.296;2023-05-10T07:07:16;16;12;
73623;PMS5003;61921;53.226;-1.296;2023-05-10T07:09:41;16;14;
73623;PMS5003;61921;53.226;-1.296;2023-05-10T07:12:07;24;19;
73623;PMS5003;61921;53.226;-1.296;2023-05-10T07:14:32;11;11;
73623;PMS5003;61921;53.226;-1.296;2023-05-10T07:16:57;14;14;
73623;PMS5003;61921;53.226;-1.296;2023-05-10T07:19:23;17;15;
73623;PMS5003;61921;53.226;-1.296;2023-05-10T07:21:49;12;11;
73623;PMS5003;61921;53.226;-1.296;2023-05-10T07:24:14;10;9;
73623;PMS5003;61921;53.226;-1.296;2023-05-10T07:26:40;7;7;
73623;PMS5003;61921;53.226;-1.296;2023-05-10T07:29:05;13;11;
73623;PMS5003;61921;53.226;-1.296;2023-05-10T07:31:30;7;7;
73623;PMS5003;61921;53.226;-1.296;2023-05-10T07:33:56;6;6;
73623;PMS5003;61921;53.226;-1.296;2023-05-10T07:36:21;7;7;
73623;PMS5003;61921;53.226;-1.296;2023-05-10T07:38:48;5;4;
73623;PMS5003;61921;53.226;-1.296;2023-05-10T07:41:12;7;5;
73623;PMS5003;61921;53.226;-1.296;2023-05-10T07:43:37;7;6;
73623;PMS5003;61921;53.226;-1.296;2023-05-10T07:46:02;4;4;
73623;PMS5003;61921;53.226;-1.296;2023-05-10T07:48:27;5;5;
73623;PMS5003;61921;53.226;-1.296;2023-05-10T07:50:52;5;5;
73623;PMS5003;61921;53.226;-1.296;2023-05-10T07:53:17;7;6;
73623;PMS5003;61921;53.226;-1.296;2023-05-10T07:55:43;3;2;
73623;PMS5003;61921;53.226;-1.296;2023-05-10T07:58:08;3;3;
73623;PMS5003;61921;53.226;-1.296;2023-05-10T08:00:33;8;4;
73623;PMS5003;61921;53.226;-1.296;2023-05-10T08:02:58;5;5;
73623;PMS5003;61921;53.226;-1.296;2023-05-10T08:05:23;4;4;
73623;PMS5003;61921;53.226;-1.296;2023-05-10T08:07:49;6;3;
73623;PMS5003;61921;53.226;-1.296;2023-05-10T08:10:14;8;5;
73623;PMS5003;61921;53.226;-1.296;2023-05-10T08:12:39;5;5;
73623;PMS5003;61921;53.226;-1.296;2023-05-10T08:15:05;5;4;
73623;PMS5003;61921;53.226;-1.296;2023-05-10T08:17:29;8;6;
73623;PMS5003;61921;53.226;-1.296;2023-05-10T08:19:55;6;6;
73623;PMS5003;61921;53.226;-1.296;2023-05-10T08:22:20;5;3;
73623;PMS5003;61921;53.226;-1.296;2023-05-10T08:24:45;5;5;
73623;PMS5003;61921;53.226;-1.296;2023-05-10T08:27:10;6;4;
73623;PMS5003;61921;53.226;-1.296;2023-05-10T08:29:36;8;6;
73623;PMS5003;61921;53.226;-1.296;2023-05-10T08:32:00;12;9;
73623;PMS5003;61921;53.226;-1.296;2023-05-10T08:34:25;12;8;
73623;PMS5003;61921;53.226;-1.296;2023-05-10T08:36:51;5;5;
73623;PMS5003;61921;53.226;-1.296;2023-05-10T08:39:16;10;9;
73623;PMS5003;61921;53.226;-1.296;2023-05-10T08:41:41;7;7;
73623;PMS5003;61921;53.226;-1.296;2023-05-10T08:44:07;8;7;
73623;PMS5003;61921;53.226;-1.296;2023-05-10T08:46:33;8;8;
73623;PMS5003;61921;53.226;-1.296;2023-05-10T08:48:57;6;5;
73623;PMS5003;61921;53.226;-1.296;2023-05-10T08:51:23;9;9;
73623;PMS5003;61921;53.226;-1.296;2023-05-10T08:53:47;12;10;
73623;PMS5003;61921;53.226;-1.296;2023-05-10T08:56:12;12;11;
73623;PMS5003;61921;53.226;-1.296;2023-05-10T08:58:38;9;9;
73623;PMS5003;61921;53.226;-1.296;2023-05-10T09:01:03;13;10;
73623;PMS5003;61921;53.226;-1.296;2023-05-10T09:03:28;12;10;
73623;PMS5003;61921;53.226;-1.296;2023-05-10T09:05:53;9;9;
73623;PMS5003;61921;53.226;-1.296;2023-05-10T09:08:18;9;8;
73623;PMS5003;61921;53.226;-1.296;2023-05-10T09:10:44;11;9;
73623;PMS5003;61921;53.226;-1.296;2023-05-10T09:13:09;11;11;
73623;PMS5003;61921;53.226;-1.296;2023-05-10T09:15:34;11;9;
73623;PMS5003;61921;53.226;-1.296;2023-05-10T09:17:59;8;8;
73623;PMS5003;61921;53.226;-1.296;2023-05-10T09:20:25;9;8;
73623;PMS5003;61921;53.226;-1.296;2023-05-10T09:22:50;8;8;
73623;PMS5003;61921;53.226;-1.296;2023-05-10T09:25:16;7;6;
73623;PMS5003;61921;53.226;-1.296;2023-05-10T09:27:41;5;5;
73623;PMS5003;61921;53.226;-1.296;2023-05-10T09:30:06;6;6;
73623;PMS5003;61921;53.226;-1.296;2023-05-10T09:32:37;7;5;
73623;PMS5003;61921;53.226;-1.296;2023-05-10T09:34:56;7;4;
73623;PMS5003;61921;53.226;-1.296;2023-05-10T09:39:46;6;5;
73623;PMS5003;61921;53.226;-1.296;2023-05-10T09:42:12;5;4;
73623;PMS5003;61921;53.226;-1.296;2023-05-10T09:44:37;2;2;
73623;PMS5003;61921;53.226;-1.296;2023-05-10T09:47:03;4;4;
73623;PMS5003;61921;53.226;-1.296;2023-05-10T09:49:28;26;22;
73623;PMS5003;61921;53.226;-1.296;2023-05-10T09:51:59;2;2;
73623;PMS5003;61921;53.226;-1.296;2023-05-10T09:54:18;4;4;
73623;PMS5003;61921;53.226;-1.296;2023-05-10T09:56:44;2;2;
73623;PMS5003;61921;53.226;-1.296;2023-05-10T09:59:10;4;3;
73623;PMS5003;61921;53.226;-1.296;2023-05-10T10:01:34;3;3;
73623;PMS5003;61921;53.226;-1.296;2023-05-10T10:04:01;1;1;
73623;PMS5003;61921;53.226;-1.296;2023-05-10T10:06:24;5;4;
73623;PMS5003;61921;53.226;-1.296;2023-05-10T10:08:49;5;3;
73623;PMS5003;61921;53.226;-1.296;2023-05-10T10:11:14;6;6;
73623;PMS5003;61921;53.226;-1.296;2023-05-10T10:13:39;4;3;
73623;PMS5003;61921;53.226;-1.296;2023-05-10T10:16:05;3;3;
73623;PMS5003;61921;53.226;-1.296;2023-05-10T10:18:30;3;3;
73623;PMS5003;61921;53.226;-1.296;2023-05-10T10:20:55;3;3;
73623;PMS5003;61921;53.226;-1.296;2023-05-10T10:23:20;4;4;
73623;PMS5003;61921;53.226;-1.296;2023-05-10T10:25:46;36;31;
73623;PMS5003;61921;53.226;-1.296;2023-05-10T10:28:16;6;4;
73623;PMS5003;61921;53.226;-1.296;2023-05-10T10:30:39;4;4;
73623;PMS5003;61921;53.226;-1.296;2023-05-10T10:35:28;5;5;
73623;PMS5003;61921;53.226;-1.296;2023-05-10T10:37:53;4;4;
73623;PMS5003;61921;53.226;-1.296;2023-05-10T10:40:22;8;7;
73623;PMS5003;61921;53.226;-1.296;2023-05-10T10:42:44;4;3;
73623;PMS5003;61921;53.226;-1.296;2023-05-10T10:45:12;6;6;
73623;PMS5003;61921;53.226;-1.296;2023-05-10T10:47:34;9;5;
73623;PMS5003;61921;53.226;-1.296;2023-05-10T10:50:03;8;6;
73623;PMS5003;61921;53.226;-1.296;2023-05-10T10:52:25;5;5;
73623;PMS5003;61921;53.226;-1.296;2023-05-10T10:54:50;8;6;
73623;PMS5003;61921;53.226;-1.296;2023-05-10T10:57:14;13;12;
73623;PMS5003;61921;53.226;-1.296;2023-05-10T10:59:41;6;5;
73623;PMS5003;61921;53.226;-1.296;2023-05-10T11:02:04;7;6;
73623;PMS5003;61921;53.226;-1.296;2023-05-10T11:04:31;10;9;
73623;PMS5003;61921;53.226;-1.296;2023-05-10T11:09:20;8;8;
73623;PMS5003;61921;53.226;-1.296;2023-05-10T11:14:10;4;4;
73623;PMS5003;61921;53.226;-1.296;2023-05-10T11:16:41;6;6;
73623;PMS5003;61921;53.226;-1.296;2023-05-10T11:19:07;5;5;
73623;PMS5003;61921;53.226;-1.296;2023-05-10T11:21:26;4;4;
73623;PMS5003;61921;53.226;-1.296;2023-05-10T11:23:52;6;6;
73623;PMS5003;61921;53.226;-1.296;2023-05-10T11:26:16;8;8;
73623;PMS5003;61921;53.226;-1.296;2023-05-10T11:28:41;3;3;
73623;PMS5003;61921;53.226;-1.296;2023-05-10T11:31:07;4;3;
73623;PMS5003;61921;53.226;-1.296;2023-05-10T11:35:57;5;4;
73623;PMS5003;61921;53.226;-1.296;2023-05-10T11:38:22;4;4;
73623;PMS5003;61921;53.226;-1.296;2023-05-10T11:40:47;7;4;
73623;PMS5003;61921;53.226;-1.296;2023-05-10T11:43:12;5;5;
73623;PMS5003;61921;53.226;-1.296;2023-05-10T11:45:37;4;3;
73623;PMS5003;61921;53.226;-1.296;2023-05-10T11:48:02;3;3;
73623;PMS5003;61921;53.226;-1.296;2023-05-10T11:50:27;4;3;
73623;PMS5003;61921;53.226;-1.296;2023-05-10T11:52:52;3;3;
73623;PMS5003;61921;53.226;-1.296;2023-05-10T11:55:17;5;5;
73623;PMS5003;61921;53.226;-1.296;2023-05-10T11:57:42;4;3;
73623;PMS5003;61921;53.226;-1.296;2023-05-10T12:00:08;1;1;
73623;PMS5003;61921;53.226;-1.296;2023-05-10T12:02:33;4;3;
73623;PMS5003;61921;53.226;-1.296;2023-05-10T12:05:00;2;2;
73623;PMS5003;61921;53.226;-1.296;2023-05-10T12:07:23;3;2;
73623;PMS5003;61921;53.226;-1.296;2023-05-10T12:12:16;3;3;
73623;PMS5003;61921;53.226;-1.296;2023-05-10T12:14:38;3;3;
73623;PMS5003;61921;53.226;-1.296;2023-05-10T12:17:03;5;4;
73623;PMS5003;61921;53.226;-1.296;2023-05-10T12:19:29;3;3;
73623;PMS5003;61921;53.226;-1.296;2023-05-10T12:21:53;5;5;
73623;PMS5003;61921;53.226;-1.296;2023-05-10T12:24:19;3;3;
73623;PMS5003;61921;53.226;-1.296;2023-05-10T12:26:45;4;4;
73623;PMS5003;61921;53.226;-1.296;2023-05-10T12:29:12;8;7;
73623;PMS5003;61921;53.226;-1.296;2023-05-10T12:34:00;4;4;
73623;PMS5003;61921;53.226;-1.296;2023-05-10T12:36:25;2;2;
73623;PMS5003;61921;53.226;-1.296;2023-05-10T12:38:50;2;2;
73623;PMS5003;61921;53.226;-1.296;2023-05-10T12:41:16;2;2;
73623;PMS5003;61921;53.226;-1.296;2023-05-10T12:43:40;5;2;
73623;PMS5003;61921;53.226;-1.296;2023-05-10T12:46:06;3;3;
73623;PMS5003;61921;53.226;-1.296;2023-05-10T12:48:31;3;3;
73623;PMS5003;61921;53.226;-1.296;2023-05-10T12:50:56;5;5;
73623;PMS5003;61921;53.226;-1.296;2023-05-10T12:53:21;5;5;
73623;PMS5003;61921;53.226;-1.296;2023-05-10T12:55:46;4;4;
73623;PMS5003;61921;53.226;-1.296;2023-05-10T12:58:12;5;5;
73623;PMS5003;61921;53.226;-1.296;2023-05-10T13:00:37;4;3;
73623;PMS5003;61921;53.226;-1.296;2023-05-10T13:03:02;5;3;
73623;PMS5003;61921;53.226;-1.296;2023-05-10T13:05:27;3;3;
73623;PMS5003;61921;53.226;-1.296;2023-05-10T13:07:53;3;3;
73623;PMS5003;61921;53.226;-1.296;2023-05-10T13:10:18;2;2;
73623;PMS5003;61921;53.226;-1.296;2023-05-10T13:12:43;2;2;
73623;PMS5003;61921;53.226;-1.296;2023-05-10T13:15:09;6;4;
73623;PMS5003;61921;53.226;-1.296;2023-05-10T13:17:34;2;2;
73623;PMS5003;61921;53.226;-1.296;2023-05-10T13:19:59;3;3;
73623;PMS5003;61921;53.226;-1.296;2023-05-10T13:22:24;2;2;
73623;PMS5003;61921;53.226;-1.296;2023-05-10T13:24:49;3;3;
73623;PMS5003;61921;53.226;-1.296;2023-05-10T13:27:15;4;2;
73623;PMS5003;61921;53.226;-1.296;2023-05-10T13:29:40;2;2;
73623;PMS5003;61921;53.226;-1.296;2023-05-10T13:32:05;2;2;
73623;PMS5003;61921;53.226;-1.296;2023-05-10T13:34:30;2;2;
73623;PMS5003;61921;53.226;-1.296;2023-05-10T13:36:56;1;1;
73623;PMS5003;61921;53.226;-1.296;2023-05-10T13:39:21;1;1;
73623;PMS5003;61921;53.226;-1.296;2023-05-10T13:41:46;2;2;
73623;PMS5003;61921;53.226;-1.296;2023-05-10T13:44:12;2;2;
73623;PMS5003;61921;53.226;-1.296;2023-05-10T13:46:36;1;1;
73623;PMS5003;61921;53.226;-1.296;2023-05-10T13:49:01;0;0;
73623;PMS5003;61921;53.226;-1.296;2023-05-10T13:51:27;3;2;
73623;PMS5003;61921;53.226;-1.296;2023-05-10T13:53:52;1;1;
73623;PMS5003;61921;53.226;-1.296;2023-05-10T13:56:17;1;1;
73623;PMS5003;61921;53.226;-1.296;2023-05-10T13:58:42;3;1;
73623;PMS5003;61921;53.226;-1.296;2023-05-10T14:01:08;1;1;
73623;PMS5003;61921;53.226;-1.296;2023-05-10T14:03:33;0;0;
73623;PMS5003;61921;53.226;-1.296;2023-05-10T14:05:58;1;1;
73623;PMS5003;61921;53.226;-1.296;2023-05-10T14:08:23;1;1;
73623;PMS5003;61921;53.226;-1.296;2023-05-10T14:10:49;1;1;
73623;PMS5003;61921;53.226;-1.296;2023-05-10T14:13:14;0;0;
73623;PMS5003;61921;53.226;-1.296;2023-05-10T14:15:39;1;0;
73623;PMS5003;61921;53.226;-1.296;2023-05-10T14:18:04;1;1;
73623;PMS5003;61921;53.226;-1.296;2023-05-10T14:20:30;1;0;
73623;PMS5003;61921;53.226;-1.296;2023-05-10T14:22:55;0;0;
73623;PMS5003;61921;53.226;-1.296;2023-05-10T14:25:20;0;0;
73623;PMS5003;61921;53.226;-1.296;2023-05-10T14:27:46;1;0;
73623;PMS5003;61921;53.226;-1.296;2023-05-10T14:30:11;2;1;
73623;PMS5003;61921;53.226;-1.296;2023-05-10T14:32:37;0;0;
73623;PMS5003;61921;53.226;-1.296;2023-05-10T14:35:01;0;0;
73623;PMS5003;61921;53.226;-1.296;2023-05-10T14:37:26;2;1;
73623;PMS5003;61921;53.226;-1.296;2023-05-10T14:39:51;0;0;
73623;PMS5003;61921;53.226;-1.296;2023-05-10T14:42:17;1;1;
73623;PMS5003;61921;53.226;-1.296;2023-05-10T14:44:42;0;0;
73623;PMS5003;61921;53.226;-1.296;2023-05-10T14:47:07;0;0;
73623;PMS5003;61921;53.226;-1.296;2023-05-10T14:49:32;3;2;
73623;PMS5003;61921;53.226;-1.296;2023-05-10T14:51:58;0;0;
73623;PMS5003;61921;53.226;-1.296;2023-05-10T14:54:23;0;0;
73623;PMS5003;61921;53.226;-1.296;2023-05-10T14:56:49;0;0;
73623;PMS5003;61921;53.226;-1.296;2023-05-10T14:59:14;0;0;
73623;PMS5003;61921;53.226;-1.296;2023-05-10T15:01:40;0;0;
73623;PMS5003;61921;53.226;-1.296;2023-05-10T15:04:04;2;1;
73623;PMS5003;61921;53.226;-1.296;2023-05-10T15:06:31;2;1;
73623;PMS5003;61921;53.226;-1.296;2023-05-10T15:08:55;1;1;
73623;PMS5003;61921;53.226;-1.296;2023-05-10T15:11:20;1;0;
73623;PMS5003;61921;53.226;-1.296;2023-05-10T15:13:45;1;1;
73623;PMS5003;61921;53.226;-1.296;2023-05-10T15:16:10;2;2;
73623;PMS5003;61921;53.226;-1.296;2023-05-10T15:18:35;1;1;
73623;PMS5003;61921;53.226;-1.296;2023-05-10T15:21:01;1;1;
73623;PMS5003;61921;53.226;-1.296;2023-05-10T15:23:26;3;3;
73623;PMS5003;61921;53.226;-1.296;2023-05-10T15:25:51;3;2;
73623;PMS5003;61921;53.226;-1.296;2023-05-10T15:28:16;5;3;
73623;PMS5003;61921;53.226;-1.296;2023-05-10T15:30:41;7;7;
73623;PMS5003;61921;53.226;-1.296;2023-05-10T15:33:07;5;5;
73623;PMS5003;61921;53.226;-1.296;2023-05-10T15:35:32;8;8;
73623;PMS5003;61921;53.226;-1.296;2023-05-10T15:37:58;6;6;
73623;PMS5003;61921;53.226;-1.296;2023-05-10T15:40:23;5;5;
73623;PMS5003;61921;53.226;-1.296;2023-05-10T15:42:48;4;4;
73623;PMS5003;61921;53.226;-1.296;2023-05-10T15:45:13;4;4;
73623;PMS5003;61921;53.226;-1.296;2023-05-10T15:47:39;8;8;
73623;PMS5003;61921;53.226;-1.296;2023-05-10T15:50:04;1;1;
73623;PMS5003;61921;53.226;-1.296;2023-05-10T15:52:29;4;4;
73623;PMS5003;61921;53.226;-1.296;2023-05-10T15:54:54;5;3;
73623;PMS5003;61921;53.226;-1.296;2023-05-10T15:57:19;3;3;
73623;PMS5003;61921;53.226;-1.296;2023-05-10T15:59:44;2;2;
73623;PMS5003;61921;53.226;-1.296;2023-05-10T16:02:10;2;2;
73623;PMS5003;61921;53.226;-1.296;2023-05-10T16:04:35;2;1;
73623;PMS5003;61921;53.226;-1.296;2023-05-10T16:07:00;4;4;
73623;PMS5003;61921;53.226;-1.296;2023-05-10T16:09:25;2;2;
73623;PMS5003;61921;53.226;-1.296;2023-05-10T16:11:51;2;2;
73623;PMS5003;61921;53.226;-1.296;2023-05-10T16:14:16;3;2;
73623;PMS5003;61921;53.226;-1.296;2023-05-10T16:16:41;1;1;
73623;PMS5003;61921;53.226;-1.296;2023-05-10T16:19:06;1;1;
73623;PMS5003;61921;53.226;-1.296;2023-05-10T16:21:31;2;2;
73623;PMS5003;61921;53.226;-1.296;2023-05-10T16:23:57;3;1;
73623;PMS5003;61921;53.226;-1.296;2023-05-10T16:26:22;1;1;
73623;PMS5003;61921;53.226;-1.296;2023-05-10T16:28:47;2;2;
73623;PMS5003;61921;53.226;-1.296;2023-05-10T16:31:12;2;2;
73623;PMS5003;61921;53.226;-1.296;2023-05-10T16:33:39;0;0;
73623;PMS5003;61921;53.226;-1.296;2023-05-10T16:36:03;0;0;